createdAt,value
2018-08-16T00:00:05.229Z,81.50
2018-08-16T00:02:49.594Z,82.40
2018-08-16T00:08:17.016Z,81.90
2018-08-16T00:10:52.049Z,82.00
2018-08-16T00:16:07.390Z,80.80
2018-08-16T00:24:22.971Z,80.20
2018-08-16T00:26:57.000Z,79.90
2018-08-16T00:29:36.957Z,79.80
2018-08-16T00:32:13.342Z,80.60
2018-08-16T00:34:50.767Z,81.40
2018-08-16T00:50:53.380Z,83.40
2018-08-16T00:53:27.916Z,82.90
2018-08-16T00:56:09.909Z,83.40
2018-08-16T00:58:51.083Z,83.70
2018-08-16T01:01:18.195Z,84.10
2018-08-16T01:03:51.445Z,84.50
2018-08-16T01:06:31.586Z,84.70
2018-08-16T01:09:01.821Z,84.90
2018-08-16T01:11:34.349Z,84.50
2018-08-16T01:25:11.059Z,84.80
2018-08-16T01:27:45.333Z,85.10
2018-08-16T01:32:51.817Z,83.00
2018-08-16T01:35:18.925Z,82.90
2018-08-16T01:37:47.190Z,82.90
2018-08-16T01:40:22.580Z,82.20
2018-08-16T01:42:49.651Z,82.10
2018-08-16T01:50:52.252Z,82.70
2018-08-16T01:53:19.348Z,83.70
2018-08-16T01:58:33.449Z,84.30
2018-08-16T02:01:00.540Z,82.90
2018-08-16T02:05:59.079Z,83.90
2018-08-16T02:08:34.217Z,84.10
2018-08-16T02:11:03.315Z,83.70
2018-08-16T02:13:30.414Z,85.50
2018-08-16T02:15:59.388Z,85.80
2018-08-16T02:18:29.615Z,85.60
2018-08-16T02:23:59.782Z,85.60
2018-08-16T02:26:39.778Z,85.90
2018-08-16T02:29:08.452Z,85.70
2018-08-16T02:31:54.136Z,85.80
2018-08-16T02:34:23.525Z,86.20
2018-08-16T02:36:50.470Z,86.40
2018-08-16T02:39:18.868Z,86.30
2018-08-16T02:41:46.856Z,86.10
2018-08-16T02:44:15.828Z,86.70
2018-08-16T02:52:12.117Z,85.60
2018-08-16T02:54:39.254Z,84.80
2018-08-16T02:57:08.060Z,84.50
2018-08-16T02:59:37.801Z,84.50
2018-08-16T03:02:04.861Z,84.80
2018-08-16T03:04:31.907Z,85.90
2018-08-16T03:09:40.349Z,84.50
2018-08-16T03:12:07.430Z,83.50
2018-08-16T03:14:34.510Z,84.60
2018-08-16T03:22:20.745Z,84.40
2018-08-16T03:24:47.785Z,83.80
2018-08-16T03:27:14.825Z,82.60
2018-08-16T03:32:10.578Z,84.30
2018-08-16T03:34:37.626Z,84.50
2018-08-16T03:37:05.276Z,84.20
2018-08-16T03:42:00.656Z,86.10
2018-08-16T03:44:28.297Z,85.70
2018-08-16T03:46:56.546Z,85.70
2018-08-16T03:49:23.620Z,85.30
2018-08-16T03:51:53.696Z,85.10
2018-08-16T03:56:48.697Z,85.20
2018-08-16T03:59:22.910Z,85.10
2018-08-16T04:01:49.976Z,85.90
2018-08-16T04:04:17.032Z,86.40
2018-08-16T04:06:44.164Z,87.00
2018-08-16T04:09:15.744Z,86.60
2018-08-16T04:11:43.319Z,86.60
2018-08-16T04:14:10.424Z,86.40
2018-08-16T04:16:37.476Z,86.10
2018-08-16T04:21:34.993Z,87.00
2018-08-16T04:24:03.007Z,87.00
2018-08-16T04:26:32.037Z,88.30
2018-08-16T04:34:23.398Z,85.30
2018-08-16T04:36:50.239Z,85.30
2018-08-16T04:39:17.286Z,85.00
2018-08-16T04:41:44.543Z,85.10
2018-08-16T04:44:11.452Z,84.90
2018-08-16T04:46:39.302Z,85.60
2018-08-16T04:51:37.520Z,86.00
2018-08-16T04:54:04.557Z,85.70
2018-08-16T04:56:31.652Z,85.60
2018-08-16T04:59:00.614Z,87.00
2018-08-16T05:01:28.607Z,87.00
2018-08-16T05:03:59.745Z,87.50
2018-08-16T05:06:26.794Z,86.60
2018-08-16T05:08:53.880Z,87.60
2018-08-16T05:11:20.973Z,86.70
2018-08-16T05:13:47.968Z,86.60
2018-08-16T05:16:14.994Z,88.50
2018-08-16T05:18:42.102Z,89.30
2018-08-16T05:21:09.140Z,89.50
2018-08-16T05:23:36.168Z,87.50
2018-08-16T05:26:03.220Z,86.60
2018-08-16T05:28:31.134Z,87.60
2018-08-16T05:30:58.185Z,88.10
2018-08-16T05:33:25.263Z,87.40
2018-08-16T05:35:53.157Z,87.20
2018-08-16T05:38:20.193Z,86.60
2018-08-16T05:43:25.813Z,85.40
2018-08-16T05:45:53.693Z,82.80
2018-08-16T05:48:20.711Z,83.20
2018-08-16T05:50:47.824Z,83.00
2018-08-16T05:53:14.937Z,85.50
2018-08-16T05:55:41.977Z,84.50
2018-08-16T05:58:10.995Z,85.90
2018-08-16T06:00:39.026Z,82.50
2018-08-16T06:03:07.508Z,81.80
2018-08-16T06:05:34.454Z,79.20
2018-08-16T06:08:01.558Z,82.80
2018-08-16T06:10:29.448Z,83.20
2018-08-16T06:12:57.435Z,84.10
2018-08-16T06:15:24.533Z,82.80
2018-08-16T06:17:51.533Z,84.00
2018-08-16T06:20:19.530Z,84.80
2018-08-16T06:22:47.151Z,84.30
2018-08-16T06:27:41.624Z,79.20
2018-08-16T06:30:09.133Z,79.30
2018-08-16T06:32:36.166Z,82.20
2018-08-16T06:35:04.155Z,80.50
2018-08-16T06:37:31.244Z,75.30
2018-08-16T06:39:58.295Z,79.00
2018-08-16T06:42:25.405Z,76.20
2018-08-16T06:44:53.433Z,74.60
2018-08-16T06:47:20.483Z,72.50
2018-08-16T06:52:14.685Z,73.10
2018-08-16T06:54:42.707Z,74.60
2018-08-16T06:57:09.738Z,74.60
2018-08-16T06:59:37.764Z,78.30
2018-08-16T07:04:32.365Z,73.20
2018-08-16T07:12:06.386Z,64.50
2018-08-16T07:14:33.358Z,66.00
2018-08-16T07:17:01.361Z,65.80
2018-08-16T07:19:28.455Z,61.00
2018-08-16T07:21:55.504Z,65.10
2018-08-16T07:24:22.541Z,63.40
2018-08-16T07:29:21.740Z,61.00
2018-08-16T07:31:48.780Z,62.70
2018-08-16T07:34:16.832Z,62.80
2018-08-16T07:36:43.971Z,63.70
2018-08-16T07:39:12.377Z,66.00
2018-08-16T07:41:39.469Z,64.90
2018-08-16T07:44:07.464Z,60.90
2018-08-16T07:46:34.889Z,60.20
2018-08-16T07:49:05.546Z,54.00
2018-08-16T07:51:32.785Z,53.00
2018-08-16T07:53:59.634Z,51.20
2018-08-16T07:56:26.730Z,52.00
2018-08-16T07:58:55.800Z,49.30
2018-08-16T08:01:22.837Z,49.40
2018-08-16T08:03:51.255Z,49.00
2018-08-16T08:06:18.219Z,47.60
2018-08-16T08:08:46.298Z,48.00
2018-08-16T08:11:14.465Z,44.50
2018-08-16T08:13:43.716Z,47.40
2018-08-16T08:16:11.717Z,42.60
2018-08-16T08:21:17.336Z,44.20
2018-08-16T08:23:46.232Z,43.60
2018-08-16T08:26:13.298Z,44.50
2018-08-16T08:28:41.331Z,40.00
2018-08-16T08:31:10.443Z,37.30
2018-08-16T08:33:37.549Z,35.20
2018-08-16T08:38:56.889Z,33.90
2018-08-16T08:41:24.622Z,37.60
2018-08-16T08:46:43.857Z,31.30
2018-08-16T09:04:00.099Z,21.20
2018-08-16T09:06:28.961Z,21.80
2018-08-16T09:09:00.447Z,21.70
2018-08-16T09:20:09.813Z,18.40
2018-08-16T09:22:38.369Z,18.90
2018-08-16T09:25:05.772Z,17.90
2018-08-16T09:37:59.515Z,14.20
2018-08-16T09:54:47.713Z,13.80
2018-08-16T09:57:29.616Z,14.40
2018-08-16T10:16:44.374Z,9.20
2018-08-16T10:38:35.188Z,11.40
2018-08-16T10:55:04.396Z,8.30
2018-08-16T11:22:40.253Z,7.70
2018-08-16T11:25:18.991Z,8.70
2018-08-16T11:44:34.233Z,8.30
2018-08-16T11:47:07.127Z,8.40
2018-08-16T11:49:43.975Z,9.30
2018-08-16T12:15:11.562Z,5.10
2018-08-16T12:20:20.950Z,3.80
2018-08-16T12:22:51.273Z,3.60
2018-08-16T12:25:26.412Z,3.60
2018-08-16T12:27:56.997Z,3.70
2018-08-16T12:30:27.764Z,3.60
2018-08-16T13:01:22.522Z,1.80
2018-08-16T13:03:51.321Z,1.90
2018-08-16T13:09:04.123Z,1.80
2018-08-16T13:14:20.624Z,1.60
2018-08-16T13:22:15.084Z,1.00
2018-08-16T13:29:01.802Z,1.00
2018-08-16T13:36:45.154Z,1.00
2018-08-16T13:42:02.944Z,1.00
2018-08-16T13:44:37.947Z,1.00
2018-08-16T13:47:10.568Z,1.00
2018-08-16T13:49:43.660Z,1.00
2018-08-16T13:57:20.552Z,1.00
2018-08-16T13:59:54.195Z,1.00
2018-08-16T14:05:11.535Z,1.00
2018-08-16T14:10:18.560Z,1.00
2018-08-16T14:12:48.828Z,1.00
2018-08-16T14:15:17.020Z,1.00
2018-08-16T14:20:17.542Z,1.00
2018-08-16T14:22:48.060Z,1.00
2018-08-16T14:25:16.821Z,1.00
2018-08-16T14:27:49.159Z,1.00
2018-08-16T14:30:17.474Z,1.00
2018-08-16T14:32:49.155Z,1.00
2018-08-16T14:35:18.586Z,1.00
2018-08-16T14:40:28.900Z,1.00
2018-08-16T14:42:58.308Z,1.00
2018-08-16T14:45:27.798Z,1.00
2018-08-16T14:47:54.913Z,1.00
2018-08-16T14:50:23.102Z,1.00
2018-08-16T14:52:51.469Z,1.00
2018-08-16T14:55:20.211Z,1.00
2018-08-16T14:57:53.225Z,1.00
2018-08-16T15:00:21.961Z,1.00
2018-08-16T15:02:49.914Z,1.00
2018-08-16T15:05:18.880Z,1.50
2018-08-16T15:07:47.957Z,1.00
2018-08-16T15:10:16.000Z,1.00
2018-08-16T15:12:44.140Z,2.20
2018-08-16T15:17:52.139Z,1.00
2018-08-16T15:20:19.710Z,1.00
2018-08-16T15:22:50.507Z,1.80
2018-08-16T15:28:04.138Z,1.00
2018-08-16T15:30:34.345Z,1.20
2018-08-16T15:33:05.208Z,1.00
2018-08-16T15:35:35.281Z,1.10
2018-08-16T15:38:07.865Z,2.30
2018-08-16T15:43:21.310Z,1.50
2018-08-16T15:51:04.206Z,2.20
2018-08-16T15:53:33.085Z,3.00
2018-08-16T15:56:01.172Z,3.50
2018-08-16T15:58:28.302Z,4.40
2018-08-16T16:00:57.747Z,4.10
2018-08-16T16:03:25.706Z,3.30
2018-08-16T16:08:41.283Z,4.20
2018-08-16T16:13:54.380Z,3.10
2018-08-16T16:19:22.076Z,3.30
2018-08-16T16:22:00.668Z,4.50
2018-08-16T16:24:31.440Z,4.20
2018-08-16T16:32:34.595Z,4.60
2018-08-16T16:37:46.232Z,5.70
2018-08-16T16:40:25.731Z,6.80
2018-08-16T16:42:58.334Z,6.50
2018-08-16T16:45:27.754Z,6.40
2018-08-16T16:53:44.270Z,7.80
2018-08-16T17:20:47.508Z,11.00
2018-08-16T17:23:14.527Z,10.70
2018-08-16T17:34:02.968Z,11.30
2018-08-16T17:42:08.388Z,11.60
2018-08-16T17:44:35.473Z,11.50
2018-08-16T17:52:29.172Z,12.60
2018-08-16T17:54:57.140Z,12.10
2018-08-16T18:02:48.799Z,13.40
2018-08-16T18:05:26.034Z,12.90
2018-08-16T18:18:58.314Z,12.60
2018-08-16T18:21:32.603Z,13.70
2018-08-16T18:34:57.089Z,13.50
2018-08-16T18:40:09.789Z,13.00
2018-08-16T18:42:36.938Z,14.00
2018-08-16T18:45:03.928Z,13.90
2018-08-16T18:47:31.945Z,14.40
2018-08-16T18:49:58.984Z,15.30
2018-08-16T18:52:26.040Z,15.00
2018-08-16T18:54:53.059Z,15.10
2018-08-16T18:57:28.173Z,14.70
2018-08-16T19:00:02.186Z,15.30
2018-08-16T19:02:39.083Z,16.20
2018-08-16T19:05:12.651Z,16.70
2018-08-16T19:10:16.929Z,16.00
2018-08-16T19:12:44.015Z,16.40
2018-08-16T19:15:13.927Z,16.20
2018-08-16T19:17:40.985Z,16.00
2018-08-16T19:20:14.533Z,16.80
2018-08-16T19:22:41.582Z,16.30
2018-08-16T19:27:35.940Z,16.50
2018-08-16T19:32:42.055Z,16.80
2018-08-16T19:35:09.055Z,18.00
2018-08-16T19:37:36.056Z,17.90
2018-08-16T19:40:03.145Z,17.70
2018-08-16T19:42:30.244Z,17.50
2018-08-16T19:44:57.320Z,17.80
2018-08-16T19:50:05.446Z,18.40
2018-08-16T19:55:48.352Z,17.90
2018-08-16T19:58:15.418Z,18.00
2018-08-16T20:00:43.187Z,17.60
2018-08-16T20:03:10.220Z,18.10
2018-08-16T20:05:37.268Z,18.40
2018-08-16T20:08:04.313Z,18.60
2018-08-16T20:10:31.337Z,18.90
2018-08-16T20:12:59.460Z,18.70
2018-08-16T20:15:26.479Z,19.10
2018-08-16T20:17:53.503Z,18.80
2018-08-16T20:20:20.572Z,19.20
2018-08-16T20:22:48.399Z,19.90
2018-08-16T20:25:15.427Z,20.10
2018-08-16T20:30:27.100Z,19.90
2018-08-16T20:32:54.173Z,20.30
2018-08-16T20:35:22.142Z,21.50
2018-08-16T20:37:49.160Z,22.10
2018-08-16T20:40:16.290Z,21.60
2018-08-16T20:42:43.376Z,21.90
2018-08-16T20:45:10.595Z,22.70
2018-08-16T20:47:37.700Z,22.80
2018-08-16T20:53:25.210Z,22.60
2018-08-16T20:55:52.254Z,22.00
2018-08-16T20:58:19.280Z,22.50
2018-08-16T21:00:46.342Z,22.90
2018-08-16T21:03:13.410Z,23.30
2018-08-16T21:08:07.619Z,23.60
2018-08-16T21:10:34.653Z,22.60
2018-08-16T21:13:01.697Z,23.00
2018-08-16T21:17:55.862Z,22.40
2018-08-16T21:20:22.881Z,22.90
2018-08-16T21:22:49.935Z,23.40
2018-08-16T21:25:16.997Z,23.10
2018-08-16T21:27:44.069Z,22.70
2018-08-16T21:30:11.064Z,21.80
2018-08-16T21:32:38.287Z,22.80
2018-08-16T21:35:05.314Z,22.60
2018-08-16T21:37:35.374Z,23.30
2018-08-16T21:40:02.328Z,22.70
2018-08-16T21:42:29.357Z,23.00
2018-08-16T21:44:56.432Z,23.30
2018-08-16T21:47:23.440Z,23.70
2018-08-16T21:49:50.722Z,23.40
2018-08-16T21:52:17.983Z,23.70
2018-08-16T21:54:45.022Z,24.60
2018-08-16T21:57:12.103Z,24.50
2018-08-16T22:05:13.728Z,25.50
2018-08-16T22:07:40.739Z,26.10
2018-08-16T22:12:34.883Z,28.00
2018-08-16T22:15:01.910Z,28.10
2018-08-16T22:17:28.985Z,30.40
2018-08-16T22:19:56.044Z,32.20
2018-08-16T22:22:23.051Z,33.20
2018-08-16T22:24:50.070Z,35.90
2018-08-16T22:27:17.158Z,38.80
2018-08-16T22:29:44.208Z,39.50
2018-08-16T22:32:16.155Z,38.50
2018-08-16T22:34:43.736Z,41.30
2018-08-16T22:40:01.241Z,43.40
2018-08-16T22:42:17.050Z,41.10
2018-08-16T22:44:44.084Z,38.00
2018-08-16T22:47:11.180Z,38.70
2018-08-16T22:49:38.213Z,38.10
2018-08-16T22:52:05.242Z,36.70
2018-08-16T22:54:32.736Z,34.70
2018-08-16T22:57:00.075Z,33.70
2018-08-16T22:59:27.127Z,32.50
2018-08-16T23:01:54.313Z,32.00
2018-08-16T23:04:21.390Z,32.30
2018-08-16T23:06:48.425Z,31.30
2018-08-16T23:09:15.830Z,32.20
2018-08-16T23:11:42.869Z,32.70
2018-08-16T23:14:09.898Z,32.20
2018-08-16T23:16:37.009Z,32.40
2018-08-16T23:19:05.035Z,32.10
2018-08-16T23:21:32.088Z,32.00
2018-08-16T23:26:26.999Z,33.50
2018-08-16T23:33:49.563Z,35.60
2018-08-16T23:36:16.189Z,36.40
2018-08-16T23:38:43.284Z,36.80
2018-08-16T23:41:10.424Z,37.30
2018-08-16T23:43:37.532Z,37.70
2018-08-16T23:46:04.600Z,38.60
2018-08-16T23:48:31.630Z,40.00
2018-08-16T23:58:32.926Z,38.90
